sensor_id;sensor_type;location;lat;lon;timestamp;P1;durP1;ratioP1;P2;durP2;ratioP2
19207;SDS011;9737;59.466;18.036;2023-05-07T00:00:12;8.07;;;4.55;;
19207;SDS011;9737;59.466;18.036;2023-05-07T00:02:42;9.65;;;4.70;;
19207;SDS011;9737;59.466;18.036;2023-05-07T00:05:11;13.43;;;4.80;;
19207;SDS011;9737;59.466;18.036;2023-05-07T00:07:40;8.70;;;4.70;;
19207;SDS011;9737;59.466;18.036;2023-05-07T00:10:10;9.45;;;4.30;;
19207;SDS011;9737;59.466;18.036;2023-05-07T00:12:40;15.13;;;4.00;;
19207;SDS011;9737;59.466;18.036;2023-05-07T00:15:09;8.02;;;4.30;;
19207;SDS011;9737;59.466;18.036;2023-05-07T00:17:38;6.13;;;3.88;;
19207;SDS011;9737;59.466;18.036;2023-05-07T00:20:07;7.63;;;4.10;;
19207;SDS011;9737;59.466;18.036;2023-05-07T00:22:36;5.60;;;3.90;;
19207;SDS011;9737;59.466;18.036;2023-05-07T00:25:05;7.05;;;4.53;;
19207;SDS011;9737;59.466;18.036;2023-05-07T00:27:35;12.30;;;4.32;;
19207;SDS011;9737;59.466;18.036;2023-05-07T00:30:04;6.38;;;4.18;;
19207;SDS011;9737;59.466;18.036;2023-05-07T00:32:34;6.57;;;4.20;;
19207;SDS011;9737;59.466;18.036;2023-05-07T00:35:03;11.13;;;4.28;;
19207;SDS011;9737;59.466;18.036;2023-05-07T00:37:32;7.15;;;4.25;;
19207;SDS011;9737;59.466;18.036;2023-05-07T00:40:01;6.28;;;4.35;;
19207;SDS011;9737;59.466;18.036;2023-05-07T00:42:31;7.20;;;4.75;;
19207;SDS011;9737;59.466;18.036;2023-05-07T00:45:01;7.40;;;4.93;;
19207;SDS011;9737;59.466;18.036;2023-05-07T00:47:29;7.15;;;4.88;;
19207;SDS011;9737;59.466;18.036;2023-05-07T00:49:59;4.97;;;3.53;;
19207;SDS011;9737;59.466;18.036;2023-05-07T00:52:27;6.75;;;4.15;;
19207;SDS011;9737;59.466;18.036;2023-05-07T00:54:57;11.43;;;4.60;;
19207;SDS011;9737;59.466;18.036;2023-05-07T00:57:25;8.63;;;5.20;;
19207;SDS011;9737;59.466;18.036;2023-05-07T00:59:54;11.98;;;5.15;;
19207;SDS011;9737;59.466;18.036;2023-05-07T01:02:25;12.35;;;4.82;;
19207;SDS011;9737;59.466;18.036;2023-05-07T01:04:53;6.18;;;4.38;;
19207;SDS011;9737;59.466;18.036;2023-05-07T01:07:23;9.35;;;4.50;;
19207;SDS011;9737;59.466;18.036;2023-05-07T01:09:55;10.55;;;4.82;;
19207;SDS011;9737;59.466;18.036;2023-05-07T01:12:23;7.43;;;4.68;;
19207;SDS011;9737;59.466;18.036;2023-05-07T01:14:54;12.00;;;4.63;;
19207;SDS011;9737;59.466;18.036;2023-05-07T01:17:22;10.38;;;4.57;;
19207;SDS011;9737;59.466;18.036;2023-05-07T01:19:52;9.45;;;4.78;;
19207;SDS011;9737;59.466;18.036;2023-05-07T01:22:28;7.60;;;4.45;;
19207;SDS011;9737;59.466;18.036;2023-05-07T01:24:58;11.10;;;4.47;;
19207;SDS011;9737;59.466;18.036;2023-05-07T01:27:28;15.05;;;4.88;;
19207;SDS011;9737;59.466;18.036;2023-05-07T01:29:56;8.32;;;4.55;;
19207;SDS011;9737;59.466;18.036;2023-05-07T01:32:26;7.60;;;4.53;;
19207;SDS011;9737;59.466;18.036;2023-05-07T01:35:00;15.15;;;4.82;;
19207;SDS011;9737;59.466;18.036;2023-05-07T01:37:32;9.82;;;4.75;;
19207;SDS011;9737;59.466;18.036;2023-05-07T01:40:01;6.10;;;4.30;;
19207;SDS011;9737;59.466;18.036;2023-05-07T01:42:31;9.73;;;4.55;;
19207;SDS011;9737;59.466;18.036;2023-05-07T01:44:59;8.07;;;4.65;;
19207;SDS011;9737;59.466;18.036;2023-05-07T01:47:29;6.07;;;3.95;;
19207;SDS011;9737;59.466;18.036;2023-05-07T01:49:58;8.48;;;4.40;;
19207;SDS011;9737;59.466;18.036;2023-05-07T01:52:27;8.30;;;4.60;;
19207;SDS011;9737;59.466;18.036;2023-05-07T01:54:57;7.13;;;4.70;;
19207;SDS011;9737;59.466;18.036;2023-05-07T01:57:25;7.82;;;4.85;;
19207;SDS011;9737;59.466;18.036;2023-05-07T01:59:54;6.63;;;4.10;;
19207;SDS011;9737;59.466;18.036;2023-05-07T02:02:22;9.98;;;4.22;;
19207;SDS011;9737;59.466;18.036;2023-05-07T02:04:51;12.20;;;4.95;;
19207;SDS011;9737;59.466;18.036;2023-05-07T02:07:19;9.38;;;5.32;;
19207;SDS011;9737;59.466;18.036;2023-05-07T02:09:48;7.50;;;4.68;;
19207;SDS011;9737;59.466;18.036;2023-05-07T02:12:18;9.57;;;4.82;;
19207;SDS011;9737;59.466;18.036;2023-05-07T02:14:47;10.07;;;5.10;;
19207;SDS011;9737;59.466;18.036;2023-05-07T02:17:15;7.20;;;4.28;;
19207;SDS011;9737;59.466;18.036;2023-05-07T02:19:43;9.35;;;4.80;;
19207;SDS011;9737;59.466;18.036;2023-05-07T02:22:12;9.70;;;5.13;;
19207;SDS011;9737;59.466;18.036;2023-05-07T02:24:40;7.88;;;4.25;;
19207;SDS011;9737;59.466;18.036;2023-05-07T02:27:09;11.07;;;4.60;;
19207;SDS011;9737;59.466;18.036;2023-05-07T02:29:39;8.25;;;4.57;;
19207;SDS011;9737;59.466;18.036;2023-05-07T02:32:07;10.90;;;5.47;;
19207;SDS011;9737;59.466;18.036;2023-05-07T02:34:35;9.20;;;4.78;;
19207;SDS011;9737;59.466;18.036;2023-05-07T02:37:03;8.82;;;4.72;;
19207;SDS011;9737;59.466;18.036;2023-05-07T02:39:31;7.10;;;4.68;;
19207;SDS011;9737;59.466;18.036;2023-05-07T02:41:59;11.40;;;4.72;;
19207;SDS011;9737;59.466;18.036;2023-05-07T02:44:28;12.50;;;5.25;;
19207;SDS011;9737;59.466;18.036;2023-05-07T02:46:59;13.38;;;5.80;;
19207;SDS011;9737;59.466;18.036;2023-05-07T02:49:26;12.57;;;5.63;;
19207;SDS011;9737;59.466;18.036;2023-05-07T02:51:54;6.65;;;4.63;;
19207;SDS011;9737;59.466;18.036;2023-05-07T02:54:22;7.95;;;4.53;;
19207;SDS011;9737;59.466;18.036;2023-05-07T02:56:50;11.57;;;5.60;;
19207;SDS011;9737;59.466;18.036;2023-05-07T02:59:18;10.80;;;5.35;;
19207;SDS011;9737;59.466;18.036;2023-05-07T03:01:46;9.38;;;5.72;;
19207;SDS011;9737;59.466;18.036;2023-05-07T03:04:16;11.75;;;5.57;;
19207;SDS011;9737;59.466;18.036;2023-05-07T03:06:45;8.27;;;5.00;;
19207;SDS011;9737;59.466;18.036;2023-05-07T03:09:14;10.45;;;5.50;;
19207;SDS011;9737;59.466;18.036;2023-05-07T03:11:42;11.13;;;5.55;;
19207;SDS011;9737;59.466;18.036;2023-05-07T03:14:10;10.93;;;5.32;;
19207;SDS011;9737;59.466;18.036;2023-05-07T03:16:38;13.25;;;5.47;;
19207;SDS011;9737;59.466;18.036;2023-05-07T03:19:06;12.02;;;5.30;;
19207;SDS011;9737;59.466;18.036;2023-05-07T03:21:35;11.90;;;5.10;;
19207;SDS011;9737;59.466;18.036;2023-05-07T03:24:03;9.05;;;5.10;;
19207;SDS011;9737;59.466;18.036;2023-05-07T03:26:32;9.77;;;4.70;;
19207;SDS011;9737;59.466;18.036;2023-05-07T03:29:00;8.02;;;4.57;;
19207;SDS011;9737;59.466;18.036;2023-05-07T03:31:28;11.55;;;5.05;;
19207;SDS011;9737;59.466;18.036;2023-05-07T03:33:56;7.53;;;5.03;;
19207;SDS011;9737;59.466;18.036;2023-05-07T03:36:24;10.10;;;4.72;;
19207;SDS011;9737;59.466;18.036;2023-05-07T03:38:54;7.50;;;4.78;;
19207;SDS011;9737;59.466;18.036;2023-05-07T03:41:22;7.13;;;4.57;;
19207;SDS011;9737;59.466;18.036;2023-05-07T03:43:50;12.02;;;5.10;;
19207;SDS011;9737;59.466;18.036;2023-05-07T03:46:18;9.35;;;5.45;;
19207;SDS011;9737;59.466;18.036;2023-05-07T03:48:46;11.48;;;4.95;;
19207;SDS011;9737;59.466;18.036;2023-05-07T03:51:14;16.83;;;6.25;;
19207;SDS011;9737;59.466;18.036;2023-05-07T03:53:42;10.05;;;5.13;;
19207;SDS011;9737;59.466;18.036;2023-05-07T03:56:12;9.30;;;4.90;;
19207;SDS011;9737;59.466;18.036;2023-05-07T03:58:40;9.05;;;5.00;;
19207;SDS011;9737;59.466;18.036;2023-05-07T04:04:01;13.02;;;5.22;;
19207;SDS011;9737;59.466;18.036;2023-05-07T04:06:29;11.02;;;5.00;;
19207;SDS011;9737;59.466;18.036;2023-05-07T04:08:57;7.82;;;5.00;;
19207;SDS011;9737;59.466;18.036;2023-05-07T04:11:27;6.68;;;4.90;;
19207;SDS011;9737;59.466;18.036;2023-05-07T04:13:55;8.18;;;4.72;;
19207;SDS011;9737;59.466;18.036;2023-05-07T04:16:23;12.43;;;5.38;;
19207;SDS011;9737;59.466;18.036;2023-05-07T04:18:51;8.50;;;5.05;;
19207;SDS011;9737;59.466;18.036;2023-05-07T04:21:20;13.93;;;5.35;;
19207;SDS011;9737;59.466;18.036;2023-05-07T04:23:48;10.00;;;4.68;;
19207;SDS011;9737;59.466;18.036;2023-05-07T04:26:16;9.02;;;5.20;;
19207;SDS011;9737;59.466;18.036;2023-05-07T04:28:45;10.27;;;5.18;;
19207;SDS011;9737;59.466;18.036;2023-05-07T04:31:13;10.23;;;4.82;;
19207;SDS011;9737;59.466;18.036;2023-05-07T04:33:42;7.68;;;4.72;;
19207;SDS011;9737;59.466;18.036;2023-05-07T04:36:10;8.25;;;4.97;;
19207;SDS011;9737;59.466;18.036;2023-05-07T04:38:38;7.18;;;4.70;;
19207;SDS011;9737;59.466;18.036;2023-05-07T04:41:06;7.95;;;4.95;;
19207;SDS011;9737;59.466;18.036;2023-05-07T04:43:34;13.75;;;5.28;;
19207;SDS011;9737;59.466;18.036;2023-05-07T04:46:03;11.75;;;5.15;;
19207;SDS011;9737;59.466;18.036;2023-05-07T04:48:31;8.18;;;5.13;;
19207;SDS011;9737;59.466;18.036;2023-05-07T04:50:59;8.50;;;5.50;;
19207;SDS011;9737;59.466;18.036;2023-05-07T04:53:27;12.88;;;5.75;;
19207;SDS011;9737;59.466;18.036;2023-05-07T04:55:55;11.73;;;5.65;;
19207;SDS011;9737;59.466;18.036;2023-05-07T04:58:24;11.70;;;6.03;;
19207;SDS011;9737;59.466;18.036;2023-05-07T05:00:52;9.32;;;4.93;;
19207;SDS011;9737;59.466;18.036;2023-05-07T05:03:21;9.07;;;5.63;;
19207;SDS011;9737;59.466;18.036;2023-05-07T05:05:49;11.00;;;5.55;;
19207;SDS011;9737;59.466;18.036;2023-05-07T05:08:20;10.82;;;5.35;;
19207;SDS011;9737;59.466;18.036;2023-05-07T05:10:48;10.90;;;5.28;;
19207;SDS011;9737;59.466;18.036;2023-05-07T05:13:16;11.68;;;4.90;;
19207;SDS011;9737;59.466;18.036;2023-05-07T05:15:46;8.82;;;5.15;;
19207;SDS011;9737;59.466;18.036;2023-05-07T05:18:13;7.10;;;4.03;;
19207;SDS011;9737;59.466;18.036;2023-05-07T05:20:43;8.10;;;4.22;;
19207;SDS011;9737;59.466;18.036;2023-05-07T05:23:11;8.00;;;4.45;;
19207;SDS011;9737;59.466;18.036;2023-05-07T05:25:39;6.22;;;4.63;;
19207;SDS011;9737;59.466;18.036;2023-05-07T05:28:06;7.15;;;3.72;;
19207;SDS011;9737;59.466;18.036;2023-05-07T05:30:34;8.75;;;4.18;;
19207;SDS011;9737;59.466;18.036;2023-05-07T05:33:02;5.72;;;3.70;;
19207;SDS011;9737;59.466;18.036;2023-05-07T05:35:31;5.22;;;3.75;;
19207;SDS011;9737;59.466;18.036;2023-05-07T05:38:00;8.55;;;4.07;;
19207;SDS011;9737;59.466;18.036;2023-05-07T05:40:28;4.35;;;3.58;;
19207;SDS011;9737;59.466;18.036;2023-05-07T05:42:56;7.15;;;3.83;;
19207;SDS011;9737;59.466;18.036;2023-05-07T05:45:24;6.10;;;3.78;;
19207;SDS011;9737;59.466;18.036;2023-05-07T05:47:52;5.85;;;2.85;;
19207;SDS011;9737;59.466;18.036;2023-05-07T05:50:20;5.78;;;3.10;;
19207;SDS011;9737;59.466;18.036;2023-05-07T05:52:47;4.95;;;3.28;;
19207;SDS011;9737;59.466;18.036;2023-05-07T05:55:17;4.97;;;2.92;;
19207;SDS011;9737;59.466;18.036;2023-05-07T05:57:44;7.07;;;3.05;;
19207;SDS011;9737;59.466;18.036;2023-05-07T06:00:13;4.13;;;3.10;;
19207;SDS011;9737;59.466;18.036;2023-05-07T06:02:42;6.18;;;2.80;;
19207;SDS011;9737;59.466;18.036;2023-05-07T06:05:10;3.63;;;3.00;;
19207;SDS011;9737;59.466;18.036;2023-05-07T06:07:38;10.70;;;3.20;;
19207;SDS011;9737;59.466;18.036;2023-05-07T06:10:06;4.72;;;2.78;;
19207;SDS011;9737;59.466;18.036;2023-05-07T06:12:36;9.85;;;2.97;;
19207;SDS011;9737;59.466;18.036;2023-05-07T06:15:04;4.80;;;2.90;;
19207;SDS011;9737;59.466;18.036;2023-05-07T06:17:33;7.60;;;2.90;;
19207;SDS011;9737;59.466;18.036;2023-05-07T06:20:01;4.28;;;2.90;;
19207;SDS011;9737;59.466;18.036;2023-05-07T06:22:30;4.43;;;2.80;;
19207;SDS011;9737;59.466;18.036;2023-05-07T06:24:57;3.20;;;2.45;;
19207;SDS011;9737;59.466;18.036;2023-05-07T06:27:28;4.40;;;2.60;;
19207;SDS011;9737;59.466;18.036;2023-05-07T06:29:58;3.40;;;2.50;;
19207;SDS011;9737;59.466;18.036;2023-05-07T06:32:32;5.43;;;2.78;;
19207;SDS011;9737;59.466;18.036;2023-05-07T06:35:00;5.00;;;2.40;;
19207;SDS011;9737;59.466;18.036;2023-05-07T06:37:28;4.30;;;2.47;;
19207;SDS011;9737;59.466;18.036;2023-05-07T06:39:56;5.55;;;2.65;;
19207;SDS011;9737;59.466;18.036;2023-05-07T06:42:25;6.38;;;2.50;;
19207;SDS011;9737;59.466;18.036;2023-05-07T06:44:54;3.00;;;2.50;;
19207;SDS011;9737;59.466;18.036;2023-05-07T06:47:23;3.72;;;2.50;;
19207;SDS011;9737;59.466;18.036;2023-05-07T06:49:51;5.00;;;2.80;;
19207;SDS011;9737;59.466;18.036;2023-05-07T06:52:18;4.65;;;2.60;;
19207;SDS011;9737;59.466;18.036;2023-05-07T06:54:46;4.35;;;2.50;;
19207;SDS011;9737;59.466;18.036;2023-05-07T06:57:14;3.45;;;2.40;;
19207;SDS011;9737;59.466;18.036;2023-05-07T06:59:42;2.83;;;2.33;;
19207;SDS011;9737;59.466;18.036;2023-05-07T07:02:10;3.25;;;2.28;;
19207;SDS011;9737;59.466;18.036;2023-05-07T07:04:39;4.82;;;2.50;;
19207;SDS011;9737;59.466;18.036;2023-05-07T07:07:08;3.47;;;2.33;;
19207;SDS011;9737;59.466;18.036;2023-05-07T07:09:36;4.10;;;2.33;;
19207;SDS011;9737;59.466;18.036;2023-05-07T07:12:04;3.10;;;2.38;;
19207;SDS011;9737;59.466;18.036;2023-05-07T07:14:32;4.70;;;2.35;;
19207;SDS011;9737;59.466;18.036;2023-05-07T07:17:00;6.63;;;2.90;;
19207;SDS011;9737;59.466;18.036;2023-05-07T07:19:28;4.05;;;2.53;;
19207;SDS011;9737;59.466;18.036;2023-05-07T07:21:57;2.47;;;1.95;;
19207;SDS011;9737;59.466;18.036;2023-05-07T07:24:25;8.15;;;1.80;;
19207;SDS011;9737;59.466;18.036;2023-05-07T07:26:54;3.60;;;2.08;;
19207;SDS011;9737;59.466;18.036;2023-05-07T07:29:22;3.38;;;2.38;;
19207;SDS011;9737;59.466;18.036;2023-05-07T07:31:55;2.25;;;2.05;;
19207;SDS011;9737;59.466;18.036;2023-05-07T07:34:24;5.13;;;2.30;;
19207;SDS011;9737;59.466;18.036;2023-05-07T07:36:53;3.05;;;2.22;;
19207;SDS011;9737;59.466;18.036;2023-05-07T07:39:22;3.45;;;2.00;;
19207;SDS011;9737;59.466;18.036;2023-05-07T07:41:50;3.63;;;2.10;;
19207;SDS011;9737;59.466;18.036;2023-05-07T07:44:18;3.85;;;2.20;;
19207;SDS011;9737;59.466;18.036;2023-05-07T07:46:46;5.07;;;2.30;;
19207;SDS011;9737;59.466;18.036;2023-05-07T07:49:15;5.75;;;2.60;;
19207;SDS011;9737;59.466;18.036;2023-05-07T07:51:43;3.15;;;2.30;;
19207;SDS011;9737;59.466;18.036;2023-05-07T07:54:11;4.75;;;2.20;;
19207;SDS011;9737;59.466;18.036;2023-05-07T07:56:40;3.90;;;2.20;;
19207;SDS011;9737;59.466;18.036;2023-05-07T07:59:08;2.53;;;1.95;;
19207;SDS011;9737;59.466;18.036;2023-05-07T08:01:36;3.50;;;2.13;;
19207;SDS011;9737;59.466;18.036;2023-05-07T08:04:04;3.83;;;2.45;;
19207;SDS011;9737;59.466;18.036;2023-05-07T08:06:32;5.68;;;2.50;;
19207;SDS011;9737;59.466;18.036;2023-05-07T08:09:00;2.20;;;2.00;;
19207;SDS011;9737;59.466;18.036;2023-05-07T08:11:29;3.40;;;2.10;;
19207;SDS011;9737;59.466;18.036;2023-05-07T08:13:58;4.65;;;2.20;;
19207;SDS011;9737;59.466;18.036;2023-05-07T08:16:26;4.55;;;2.33;;
19207;SDS011;9737;59.466;18.036;2023-05-07T08:18:56;3.08;;;2.40;;
19207;SDS011;9737;59.466;18.036;2023-05-07T08:21:24;3.22;;;2.00;;
19207;SDS011;9737;59.466;18.036;2023-05-07T08:23:52;3.55;;;2.20;;
19207;SDS011;9737;59.466;18.036;2023-05-07T08:26:20;3.53;;;2.17;;
19207;SDS011;9737;59.466;18.036;2023-05-07T08:28:48;2.55;;;1.85;;
19207;SDS011;9737;59.466;18.036;2023-05-07T08:31:17;3.38;;;2.20;;
19207;SDS011;9737;59.466;18.036;2023-05-07T08:33:45;4.03;;;2.20;;
19207;SDS011;9737;59.466;18.036;2023-05-07T08:37:02;6.25;;;2.70;;
19207;SDS011;9737;59.466;18.036;2023-05-07T08:39:30;4.55;;;2.40;;
19207;SDS011;9737;59.466;18.036;2023-05-07T08:41:58;3.38;;;1.95;;
19207;SDS011;9737;59.466;18.036;2023-05-07T08:44:28;3.75;;;2.15;;
19207;SDS011;9737;59.466;18.036;2023-05-07T08:47:02;3.53;;;1.90;;
19207;SDS011;9737;59.466;18.036;2023-05-07T08:49:33;3.53;;;1.77;;
19207;SDS011;9737;59.466;18.036;2023-05-07T08:52:02;4.28;;;1.90;;
19207;SDS011;9737;59.466;18.036;2023-05-07T08:54:30;4.90;;;1.80;;
19207;SDS011;9737;59.466;18.036;2023-05-07T08:56:59;7.90;;;2.20;;
19207;SDS011;9737;59.466;18.036;2023-05-07T08:59:27;4.68;;;1.70;;
19207;SDS011;9737;59.466;18.036;2023-05-07T09:01:56;3.67;;;2.00;;
19207;SDS011;9737;59.466;18.036;2023-05-07T09:04:25;1.75;;;1.55;;
19207;SDS011;9737;59.466;18.036;2023-05-07T09:06:53;3.55;;;2.03;;
19207;SDS011;9737;59.466;18.036;2023-05-07T09:09:22;3.47;;;1.90;;
19207;SDS011;9737;59.466;18.036;2023-05-07T09:11:55;2.30;;;1.70;;
19207;SDS011;9737;59.466;18.036;2023-05-07T09:14:25;5.15;;;1.90;;
19207;SDS011;9737;59.466;18.036;2023-05-07T09:16:52;3.45;;;1.58;;
19207;SDS011;9737;59.466;18.036;2023-05-07T09:19:22;2.17;;;1.70;;
19207;SDS011;9737;59.466;18.036;2023-05-07T09:21:58;4.47;;;1.95;;
19207;SDS011;9737;59.466;18.036;2023-05-07T09:24:27;4.85;;;1.63;;
19207;SDS011;9737;59.466;18.036;2023-05-07T09:26:57;6.05;;;1.75;;
19207;SDS011;9737;59.466;18.036;2023-05-07T09:29:25;4.85;;;1.67;;
19207;SDS011;9737;59.466;18.036;2023-05-07T09:31:56;2.85;;;1.60;;
19207;SDS011;9737;59.466;18.036;2023-05-07T09:34:23;3.17;;;1.98;;
19207;SDS011;9737;59.466;18.036;2023-05-07T09:36:51;4.47;;;1.70;;
19207;SDS011;9737;59.466;18.036;2023-05-07T09:39:22;4.93;;;1.70;;
19207;SDS011;9737;59.466;18.036;2023-05-07T09:41:50;2.78;;;1.70;;
19207;SDS011;9737;59.466;18.036;2023-05-07T09:44:20;2.65;;;1.85;;
19207;SDS011;9737;59.466;18.036;2023-05-07T09:46:51;2.78;;;2.03;;
19207;SDS011;9737;59.466;18.036;2023-05-07T09:49:22;3.88;;;1.80;;
19207;SDS011;9737;59.466;18.036;2023-05-07T09:51:51;2.33;;;1.60;;
19207;SDS011;9737;59.466;18.036;2023-05-07T09:54:19;1.80;;;1.50;;
19207;SDS011;9737;59.466;18.036;2023-05-07T09:56:49;3.85;;;1.60;;
19207;SDS011;9737;59.466;18.036;2023-05-07T09:59:17;1.77;;;1.50;;
19207;SDS011;9737;59.466;18.036;2023-05-07T10:01:46;6.68;;;1.50;;
19207;SDS011;9737;59.466;18.036;2023-05-07T10:04:13;4.75;;;1.77;;
19207;SDS011;9737;59.466;18.036;2023-05-07T10:06:42;2.85;;;1.70;;
19207;SDS011;9737;59.466;18.036;2023-05-07T10:09:10;3.30;;;1.88;;
19207;SDS011;9737;59.466;18.036;2023-05-07T10:11:39;5.82;;;1.60;;
19207;SDS011;9737;59.466;18.036;2023-05-07T10:14:09;4.75;;;1.70;;
19207;SDS011;9737;59.466;18.036;2023-05-07T10:16:38;2.92;;;1.85;;
19207;SDS011;9737;59.466;18.036;2023-05-07T10:19:06;2.15;;;1.50;;
19207;SDS011;9737;59.466;18.036;2023-05-07T10:21:36;3.80;;;1.58;;
19207;SDS011;9737;59.466;18.036;2023-05-07T10:24:05;2.72;;;1.70;;
19207;SDS011;9737;59.466;18.036;2023-05-07T10:26:40;3.33;;;1.83;;
19207;SDS011;9737;59.466;18.036;2023-05-07T10:29:12;4.88;;;1.90;;
19207;SDS011;9737;59.466;18.036;2023-05-07T10:31:50;1.60;;;1.35;;
19207;SDS011;9737;59.466;18.036;2023-05-07T10:34:24;4.10;;;1.85;;
19207;SDS011;9737;59.466;18.036;2023-05-07T10:36:55;4.03;;;1.70;;
19207;SDS011;9737;59.466;18.036;2023-05-07T10:39:24;1.80;;;1.38;;
19207;SDS011;9737;59.466;18.036;2023-05-07T10:41:52;5.72;;;1.65;;
19207;SDS011;9737;59.466;18.036;2023-05-07T10:44:28;5.88;;;1.60;;
19207;SDS011;9737;59.466;18.036;2023-05-07T10:47:03;4.93;;;1.80;;
19207;SDS011;9737;59.466;18.036;2023-05-07T10:49:32;6.15;;;1.90;;
19207;SDS011;9737;59.466;18.036;2023-05-07T10:52:13;2.95;;;1.83;;
19207;SDS011;9737;59.466;18.036;2023-05-07T10:54:42;4.47;;;1.50;;
19207;SDS011;9737;59.466;18.036;2023-05-07T11:00:03;7.00;;;1.73;;
19207;SDS011;9737;59.466;18.036;2023-05-07T11:03:10;4.40;;;1.80;;
19207;SDS011;9737;59.466;18.036;2023-05-07T11:05:38;2.85;;;1.65;;
19207;SDS011;9737;59.466;18.036;2023-05-07T11:08:06;2.58;;;1.60;;
19207;SDS011;9737;59.466;18.036;2023-05-07T11:10:48;5.93;;;1.65;;
19207;SDS011;9737;59.466;18.036;2023-05-07T11:13:17;4.60;;;1.77;;
19207;SDS011;9737;59.466;18.036;2023-05-07T11:15:47;2.58;;;1.67;;
19207;SDS011;9737;59.466;18.036;2023-05-07T11:18:16;4.85;;;1.70;;
19207;SDS011;9737;59.466;18.036;2023-05-07T11:20:49;1.88;;;1.55;;
19207;SDS011;9737;59.466;18.036;2023-05-07T11:26:25;4.95;;;1.60;;
19207;SDS011;9737;59.466;18.036;2023-05-07T11:28:53;3.25;;;1.50;;
19207;SDS011;9737;59.466;18.036;2023-05-07T11:31:24;3.53;;;1.50;;
19207;SDS011;9737;59.466;18.036;2023-05-07T11:33:54;67.97;;;6.82;;
19207;SDS011;9737;59.466;18.036;2023-05-07T11:36:23;12.48;;;2.92;;
19207;SDS011;9737;59.466;18.036;2023-05-07T11:38:52;3.50;;;1.83;;
19207;SDS011;9737;59.466;18.036;2023-05-07T11:41:20;5.82;;;1.60;;
19207;SDS011;9737;59.466;18.036;2023-05-07T11:43:55;4.93;;;1.80;;
19207;SDS011;9737;59.466;18.036;2023-05-07T11:46:26;4.22;;;1.80;;
19207;SDS011;9737;59.466;18.036;2023-05-07T11:48:55;3.83;;;1.98;;
19207;SDS011;9737;59.466;18.036;2023-05-07T11:51:24;3.65;;;1.70;;
19207;SDS011;9737;59.466;18.036;2023-05-07T11:53:53;3.25;;;1.70;;
19207;SDS011;9737;59.466;18.036;2023-05-07T11:56:21;6.60;;;1.83;;
19207;SDS011;9737;59.466;18.036;2023-05-07T11:58:49;3.83;;;1.70;;
19207;SDS011;9737;59.466;18.036;2023-05-07T12:01:18;2.72;;;1.55;;
19207;SDS011;9737;59.466;18.036;2023-05-07T12:03:48;3.03;;;1.58;;
19207;SDS011;9737;59.466;18.036;2023-05-07T12:06:16;5.18;;;1.48;;
19207;SDS011;9737;59.466;18.036;2023-05-07T12:08:45;6.82;;;1.90;;
19207;SDS011;9737;59.466;18.036;2023-05-07T12:11:14;2.03;;;1.58;;
19207;SDS011;9737;59.466;18.036;2023-05-07T12:13:44;3.85;;;1.67;;
19207;SDS011;9737;59.466;18.036;2023-05-07T12:16:12;3.88;;;1.77;;
19207;SDS011;9737;59.466;18.036;2023-05-07T12:18:41;3.35;;;1.75;;
19207;SDS011;9737;59.466;18.036;2023-05-07T12:21:11;4.40;;;1.90;;
19207;SDS011;9737;59.466;18.036;2023-05-07T12:23:39;4.60;;;1.73;;
19207;SDS011;9737;59.466;18.036;2023-05-07T12:26:07;5.88;;;1.83;;
19207;SDS011;9737;59.466;18.036;2023-05-07T12:28:36;6.32;;;1.80;;
19207;SDS011;9737;59.466;18.036;2023-05-07T12:31:10;2.58;;;1.83;;
19207;SDS011;9737;59.466;18.036;2023-05-07T12:33:38;3.97;;;1.83;;
19207;SDS011;9737;59.466;18.036;2023-05-07T12:36:07;3.40;;;1.73;;
19207;SDS011;9737;59.466;18.036;2023-05-07T12:38:38;4.18;;;1.80;;
19207;SDS011;9737;59.466;18.036;2023-05-07T12:41:07;3.67;;;1.70;;
19207;SDS011;9737;59.466;18.036;2023-05-07T12:43:36;5.25;;;1.65;;
19207;SDS011;9737;59.466;18.036;2023-05-07T12:46:05;3.83;;;1.60;;
19207;SDS011;9737;59.466;18.036;2023-05-07T12:48:35;3.63;;;1.83;;
19207;SDS011;9737;59.466;18.036;2023-05-07T12:51:04;4.43;;;1.70;;
19207;SDS011;9737;59.466;18.036;2023-05-07T12:53:34;7.95;;;1.98;;
19207;SDS011;9737;59.466;18.036;2023-05-07T12:56:08;7.28;;;1.60;;
19207;SDS011;9737;59.466;18.036;2023-05-07T12:58:37;4.30;;;1.75;;
19207;SDS011;9737;59.466;18.036;2023-05-07T13:01:05;2.83;;;1.65;;
19207;SDS011;9737;59.466;18.036;2023-05-07T13:03:37;2.45;;;1.58;;
19207;SDS011;9737;59.466;18.036;2023-05-07T13:06:06;3.70;;;1.55;;
19207;SDS011;9737;59.466;18.036;2023-05-07T13:08:38;2.40;;;1.42;;
19207;SDS011;9737;59.466;18.036;2023-05-07T13:11:10;2.47;;;1.38;;
19207;SDS011;9737;59.466;18.036;2023-05-07T13:13:40;5.18;;;1.52;;
19207;SDS011;9737;59.466;18.036;2023-05-07T13:16:09;3.35;;;1.60;;
19207;SDS011;9737;59.466;18.036;2023-05-07T13:18:39;4.75;;;1.40;;
19207;SDS011;9737;59.466;18.036;2023-05-07T13:21:10;3.42;;;1.30;;
19207;SDS011;9737;59.466;18.036;2023-05-07T13:23:39;3.58;;;1.20;;
19207;SDS011;9737;59.466;18.036;2023-05-07T13:26:07;1.88;;;1.15;;
19207;SDS011;9737;59.466;18.036;2023-05-07T13:28:53;2.67;;;1.30;;
19207;SDS011;9737;59.466;18.036;2023-05-07T13:31:21;4.50;;;1.20;;
19207;SDS011;9737;59.466;18.036;2023-05-07T13:33:49;5.20;;;1.25;;
19207;SDS011;9737;59.466;18.036;2023-05-07T13:36:17;2.92;;;1.38;;
19207;SDS011;9737;59.466;18.036;2023-05-07T13:38:45;2.28;;;1.40;;
19207;SDS011;9737;59.466;18.036;2023-05-07T13:41:13;6.13;;;1.42;;
19207;SDS011;9737;59.466;18.036;2023-05-07T13:43:41;2.33;;;1.40;;
19207;SDS011;9737;59.466;18.036;2023-05-07T13:46:10;4.65;;;1.63;;
19207;SDS011;9737;59.466;18.036;2023-05-07T13:48:38;1.67;;;1.40;;
19207;SDS011;9737;59.466;18.036;2023-05-07T13:51:06;2.90;;;1.33;;
19207;SDS011;9737;59.466;18.036;2023-05-07T13:53:34;5.63;;;1.40;;
19207;SDS011;9737;59.466;18.036;2023-05-07T13:56:02;1.92;;;1.40;;
19207;SDS011;9737;59.466;18.036;2023-05-07T13:58:31;3.83;;;1.55;;
19207;SDS011;9737;59.466;18.036;2023-05-07T14:00:59;2.90;;;1.58;;
19207;SDS011;9737;59.466;18.036;2023-05-07T14:03:28;4.50;;;1.70;;
19207;SDS011;9737;59.466;18.036;2023-05-07T14:05:58;3.80;;;1.70;;
19207;SDS011;9737;59.466;18.036;2023-05-07T14:08:27;3.10;;;1.40;;
19207;SDS011;9737;59.466;18.036;2023-05-07T14:10:57;5.00;;;1.25;;
19207;SDS011;9737;59.466;18.036;2023-05-07T14:13:26;4.63;;;1.40;;
19207;SDS011;9737;59.466;18.036;2023-05-07T14:15:54;3.30;;;1.58;;
19207;SDS011;9737;59.466;18.036;2023-05-07T14:18:22;3.42;;;1.73;;
19207;SDS011;9737;59.466;18.036;2023-05-07T14:20:51;5.25;;;1.70;;
19207;SDS011;9737;59.466;18.036;2023-05-07T14:23:19;2.40;;;1.52;;
19207;SDS011;9737;59.466;18.036;2023-05-07T14:25:52;8.30;;;2.90;;
19207;SDS011;9737;59.466;18.036;2023-05-07T14:28:20;2.25;;;1.52;;
19207;SDS011;9737;59.466;18.036;2023-05-07T14:30:48;2.92;;;1.65;;
19207;SDS011;9737;59.466;18.036;2023-05-07T14:33:16;6.18;;;1.60;;
19207;SDS011;9737;59.466;18.036;2023-05-07T14:35:45;3.30;;;1.60;;
19207;SDS011;9737;59.466;18.036;2023-05-07T14:38:16;29.90;;;2.20;;
19207;SDS011;9737;59.466;18.036;2023-05-07T14:40:44;5.70;;;1.65;;
19207;SDS011;9737;59.466;18.036;2023-05-07T14:43:12;1.60;;;1.25;;
19207;SDS011;9737;59.466;18.036;2023-05-07T14:45:40;2.67;;;1.50;;
19207;SDS011;9737;59.466;18.036;2023-05-07T14:48:08;2.78;;;1.60;;
19207;SDS011;9737;59.466;18.036;2023-05-07T14:50:41;3.97;;;1.13;;
19207;SDS011;9737;59.466;18.036;2023-05-07T14:53:09;4.85;;;1.50;;
19207;SDS011;9737;59.466;18.036;2023-05-07T14:55:38;2.60;;;1.40;;
19207;SDS011;9737;59.466;18.036;2023-05-07T14:58:06;3.35;;;1.60;;
19207;SDS011;9737;59.466;18.036;2023-05-07T15:00:34;5.20;;;1.80;;
19207;SDS011;9737;59.466;18.036;2023-05-07T15:03:04;3.70;;;1.70;;
19207;SDS011;9737;59.466;18.036;2023-05-07T15:05:34;3.47;;;1.55;;